sensor_id;sensor_type;location;lat;lon;timestamp;P1;durP1;ratioP1;P2;durP2;ratioP2
66012;SDS011;52783;50.502;8.190;2023-05-16T00:00:22;28.33;;;14.98;;
66012;SDS011;52783;50.502;8.190;2023-05-16T00:02:49;29.42;;;15.02;;
66012;SDS011;52783;50.502;8.190;2023-05-16T00:05:15;24.38;;;16.85;;
66012;SDS011;52783;50.502;8.190;2023-05-16T00:07:41;24.85;;;15.88;;
66012;SDS011;52783;50.502;8.190;2023-05-16T00:10:08;26.60;;;15.82;;
66012;SDS011;52783;50.502;8.190;2023-05-16T00:12:34;23.08;;;16.52;;
66012;SDS011;52783;50.502;8.190;2023-05-16T00:15:01;33.25;;;16.70;;
66012;SDS011;52783;50.502;8.190;2023-05-16T00:17:29;27.15;;;17.90;;
66012;SDS011;52783;50.502;8.190;2023-05-16T00:19:54;27.98;;;18.58;;
66012;SDS011;52783;50.502;8.190;2023-05-16T00:22:25;29.13;;;19.33;;
66012;SDS011;52783;50.502;8.190;2023-05-16T00:24:51;32.53;;;20.23;;
66012;SDS011;52783;50.502;8.190;2023-05-16T00:27:17;29.27;;;20.40;;
66012;SDS011;52783;50.502;8.190;2023-05-16T00:29:42;31.33;;;21.10;;
66012;SDS011;52783;50.502;8.190;2023-05-16T00:32:08;28.88;;;20.40;;
66012;SDS011;52783;50.502;8.190;2023-05-16T00:34:34;30.00;;;21.50;;
66012;SDS011;52783;50.502;8.190;2023-05-16T00:37:00;30.70;;;20.27;;
66012;SDS011;52783;50.502;8.190;2023-05-16T00:39:25;29.58;;;21.55;;
66012;SDS011;52783;50.502;8.190;2023-05-16T00:41:51;36.38;;;19.92;;
66012;SDS011;52783;50.502;8.190;2023-05-16T00:44:17;30.33;;;20.30;;
66012;SDS011;52783;50.502;8.190;2023-05-16T00:46:43;27.95;;;19.17;;
66012;SDS011;52783;50.502;8.190;2023-05-16T00:49:09;31.58;;;20.40;;
66012;SDS011;52783;50.502;8.190;2023-05-16T00:51:35;32.10;;;20.33;;
66012;SDS011;52783;50.502;8.190;2023-05-16T00:54:02;32.30;;;20.40;;
66012;SDS011;52783;50.502;8.190;2023-05-16T00:56:28;31.98;;;20.45;;
66012;SDS011;52783;50.502;8.190;2023-05-16T00:58:54;33.38;;;21.15;;
66012;SDS011;52783;50.502;8.190;2023-05-16T01:01:20;27.30;;;19.88;;
66012;SDS011;52783;50.502;8.190;2023-05-16T01:03:49;32.28;;;20.60;;
66012;SDS011;52783;50.502;8.190;2023-05-16T01:06:14;35.35;;;19.70;;
66012;SDS011;52783;50.502;8.190;2023-05-16T01:08:40;26.55;;;17.70;;
66012;SDS011;52783;50.502;8.190;2023-05-16T01:16:44;29.90;;;18.70;;
66012;SDS011;52783;50.502;8.190;2023-05-16T01:20:02;29.05;;;18.30;;
66012;SDS011;52783;50.502;8.190;2023-05-16T01:27:29;32.03;;;19.67;;
66012;SDS011;52783;50.502;8.190;2023-05-16T01:29:56;30.48;;;18.88;;
66012;SDS011;52783;50.502;8.190;2023-05-16T01:32:21;30.38;;;19.20;;
66012;SDS011;52783;50.502;8.190;2023-05-16T01:34:48;30.17;;;19.73;;
66012;SDS011;52783;50.502;8.190;2023-05-16T01:37:27;33.88;;;18.45;;
66012;SDS011;52783;50.502;8.190;2023-05-16T01:40:11;36.58;;;19.98;;
66012;SDS011;52783;50.502;8.190;2023-05-16T01:42:51;39.05;;;22.52;;
66012;SDS011;52783;50.502;8.190;2023-05-16T01:45:31;25.83;;;16.00;;
66012;SDS011;52783;50.502;8.190;2023-05-16T01:48:00;37.25;;;21.52;;
66012;SDS011;52783;50.502;8.190;2023-05-16T01:50:31;35.90;;;17.17;;
66012;SDS011;52783;50.502;8.190;2023-05-16T01:53:07;40.50;;;20.55;;
66012;SDS011;52783;50.502;8.190;2023-05-16T01:55:38;38.90;;;20.38;;
66012;SDS011;52783;50.502;8.190;2023-05-16T02:00:35;33.15;;;18.13;;
66012;SDS011;52783;50.502;8.190;2023-05-16T02:03:00;30.67;;;18.48;;
66012;SDS011;52783;50.502;8.190;2023-05-16T02:05:26;38.92;;;20.50;;
66012;SDS011;52783;50.502;8.190;2023-05-16T02:07:52;41.00;;;20.30;;
66012;SDS011;52783;50.502;8.190;2023-05-16T02:10:17;36.58;;;20.20;;
66012;SDS011;52783;50.502;8.190;2023-05-16T02:12:44;35.80;;;19.55;;
66012;SDS011;52783;50.502;8.190;2023-05-16T02:15:10;37.30;;;19.80;;
66012;SDS011;52783;50.502;8.190;2023-05-16T02:17:35;46.75;;;21.40;;
66012;SDS011;52783;50.502;8.190;2023-05-16T02:20:01;35.03;;;19.00;;
66012;SDS011;52783;50.502;8.190;2023-05-16T02:22:31;37.28;;;19.58;;
66012;SDS011;52783;50.502;8.190;2023-05-16T02:24:59;38.25;;;18.92;;
66012;SDS011;52783;50.502;8.190;2023-05-16T02:27:25;34.50;;;19.17;;
66012;SDS011;52783;50.502;8.190;2023-05-16T02:29:50;41.50;;;20.08;;
66012;SDS011;52783;50.502;8.190;2023-05-16T02:32:16;29.73;;;16.95;;
66012;SDS011;52783;50.502;8.190;2023-05-16T02:34:41;33.42;;;16.80;;
66012;SDS011;52783;50.502;8.190;2023-05-16T02:37:07;31.85;;;17.35;;
66012;SDS011;52783;50.502;8.190;2023-05-16T02:39:32;31.67;;;16.08;;
66012;SDS011;52783;50.502;8.190;2023-05-16T02:41:58;26.27;;;15.65;;
66012;SDS011;52783;50.502;8.190;2023-05-16T02:44:23;33.20;;;15.88;;
66012;SDS011;52783;50.502;8.190;2023-05-16T02:46:49;27.85;;;14.45;;
66012;SDS011;52783;50.502;8.190;2023-05-16T02:49:15;27.73;;;13.35;;
66012;SDS011;52783;50.502;8.190;2023-05-16T02:51:41;28.02;;;14.77;;
66012;SDS011;52783;50.502;8.190;2023-05-16T02:54:06;25.60;;;13.15;;
66012;SDS011;52783;50.502;8.190;2023-05-16T02:56:33;20.17;;;12.45;;
66012;SDS011;52783;50.502;8.190;2023-05-16T02:58:59;20.33;;;11.45;;
66012;SDS011;52783;50.502;8.190;2023-05-16T03:01:25;19.23;;;10.68;;
66012;SDS011;52783;50.502;8.190;2023-05-16T03:03:51;19.63;;;10.05;;
66012;SDS011;52783;50.502;8.190;2023-05-16T03:06:16;15.27;;;9.57;;
66012;SDS011;52783;50.502;8.190;2023-05-16T03:08:42;18.15;;;9.90;;
66012;SDS011;52783;50.502;8.190;2023-05-16T03:11:07;16.17;;;8.52;;
66012;SDS011;52783;50.502;8.190;2023-05-16T03:13:33;16.00;;;9.50;;
66012;SDS011;52783;50.502;8.190;2023-05-16T03:15:59;13.07;;;8.15;;
66012;SDS011;52783;50.502;8.190;2023-05-16T03:18:25;15.18;;;8.32;;
66012;SDS011;52783;50.502;8.190;2023-05-16T03:20:50;12.02;;;7.55;;
66012;SDS011;52783;50.502;8.190;2023-05-16T03:23:17;14.55;;;7.93;;
66012;SDS011;52783;50.502;8.190;2023-05-16T03:25:43;16.63;;;9.20;;
66012;SDS011;52783;50.502;8.190;2023-05-16T03:28:10;21.02;;;10.55;;
66012;SDS011;52783;50.502;8.190;2023-05-16T03:30:36;18.52;;;11.52;;
66012;SDS011;52783;50.502;8.190;2023-05-16T03:33:02;17.80;;;11.40;;
66012;SDS011;52783;50.502;8.190;2023-05-16T03:35:28;21.63;;;10.15;;
66012;SDS011;52783;50.502;8.190;2023-05-16T03:37:58;14.52;;;8.90;;
66012;SDS011;52783;50.502;8.190;2023-05-16T03:40:23;13.20;;;8.00;;
66012;SDS011;52783;50.502;8.190;2023-05-16T03:42:49;16.58;;;7.75;;
66012;SDS011;52783;50.502;8.190;2023-05-16T03:45:14;15.93;;;7.90;;
66012;SDS011;52783;50.502;8.190;2023-05-16T03:47:40;13.75;;;7.75;;
66012;SDS011;52783;50.502;8.190;2023-05-16T03:50:06;10.90;;;6.90;;
66012;SDS011;52783;50.502;8.190;2023-05-16T03:52:33;11.50;;;6.90;;
66012;SDS011;52783;50.502;8.190;2023-05-16T03:54:59;8.35;;;5.82;;
66012;SDS011;52783;50.502;8.190;2023-05-16T03:57:29;8.80;;;6.00;;
66012;SDS011;52783;50.502;8.190;2023-05-16T03:59:56;8.50;;;4.28;;
66012;SDS011;52783;50.502;8.190;2023-05-16T04:02:21;3.70;;;2.38;;
66012;SDS011;52783;50.502;8.190;2023-05-16T04:04:47;1.80;;;1.70;;
66012;SDS011;52783;50.502;8.190;2023-05-16T04:07:13;1.50;;;1.40;;
66012;SDS011;52783;50.502;8.190;2023-05-16T04:09:39;3.42;;;1.70;;
66012;SDS011;52783;50.502;8.190;2023-05-16T04:12:05;2.00;;;1.80;;
66012;SDS011;52783;50.502;8.190;2023-05-16T04:14:30;1.88;;;1.77;;
66012;SDS011;52783;50.502;8.190;2023-05-16T04:16:56;2.70;;;1.50;;
66012;SDS011;52783;50.502;8.190;2023-05-16T04:19:22;1.60;;;1.52;;
66012;SDS011;52783;50.502;8.190;2023-05-16T04:21:47;2.17;;;1.77;;
66012;SDS011;52783;50.502;8.190;2023-05-16T04:24:13;1.60;;;1.50;;
66012;SDS011;52783;50.502;8.190;2023-05-16T04:26:38;2.15;;;1.10;;
66012;SDS011;52783;50.502;8.190;2023-05-16T04:29:04;1.30;;;1.30;;
66012;SDS011;52783;50.502;8.190;2023-05-16T04:31:30;1.85;;;1.33;;
66012;SDS011;52783;50.502;8.190;2023-05-16T04:33:56;1.45;;;1.35;;
66012;SDS011;52783;50.502;8.190;2023-05-16T04:36:22;1.33;;;1.23;;
66012;SDS011;52783;50.502;8.190;2023-05-16T04:38:47;1.45;;;1.35;;
66012;SDS011;52783;50.502;8.190;2023-05-16T04:41:13;10.00;;;1.48;;
66012;SDS011;52783;50.502;8.190;2023-05-16T04:43:39;1.60;;;1.50;;
66012;SDS011;52783;50.502;8.190;2023-05-16T04:46:06;2.13;;;1.65;;
66012;SDS011;52783;50.502;8.190;2023-05-16T04:48:32;1.60;;;1.50;;
66012;SDS011;52783;50.502;8.190;2023-05-16T04:50:58;3.08;;;1.58;;
66012;SDS011;52783;50.502;8.190;2023-05-16T04:53:24;1.88;;;1.60;;
66012;SDS011;52783;50.502;8.190;2023-05-16T04:55:50;4.63;;;1.70;;
66012;SDS011;52783;50.502;8.190;2023-05-16T04:58:15;1.20;;;1.20;;
66012;SDS011;52783;50.502;8.190;2023-05-16T05:00:41;1.58;;;1.48;;
66012;SDS011;52783;50.502;8.190;2023-05-16T05:03:06;1.50;;;1.40;;
66012;SDS011;52783;50.502;8.190;2023-05-16T05:05:32;1.40;;;1.30;;
66012;SDS011;52783;50.502;8.190;2023-05-16T05:07:58;1.83;;;1.65;;
66012;SDS011;52783;50.502;8.190;2023-05-16T05:10:24;1.48;;;1.38;;
66012;SDS011;52783;50.502;8.190;2023-05-16T05:12:51;1.67;;;1.58;;
66012;SDS011;52783;50.502;8.190;2023-05-16T05:15:17;2.65;;;1.60;;
66012;SDS011;52783;50.502;8.190;2023-05-16T05:17:43;1.08;;;1.05;;
66012;SDS011;52783;50.502;8.190;2023-05-16T05:20:09;1.30;;;1.30;;
66012;SDS011;52783;50.502;8.190;2023-05-16T05:22:35;1.20;;;1.10;;
66012;SDS011;52783;50.502;8.190;2023-05-16T05:25:01;1.23;;;1.20;;
66012;SDS011;52783;50.502;8.190;2023-05-16T05:27:27;1.33;;;1.10;;
66012;SDS011;52783;50.502;8.190;2023-05-16T05:29:52;1.40;;;1.10;;
66012;SDS011;52783;50.502;8.190;2023-05-16T05:32:18;1.20;;;1.10;;
66012;SDS011;52783;50.502;8.190;2023-05-16T05:34:43;1.20;;;0.95;;
66012;SDS011;52783;50.502;8.190;2023-05-16T05:37:09;1.33;;;1.23;;
66012;SDS011;52783;50.502;8.190;2023-05-16T05:39:35;0.80;;;0.80;;
66012;SDS011;52783;50.502;8.190;2023-05-16T05:42:00;0.80;;;0.80;;
66012;SDS011;52783;50.502;8.190;2023-05-16T05:44:27;0.73;;;0.73;;
66012;SDS011;52783;50.502;8.190;2023-05-16T05:46:54;0.85;;;0.85;;
66012;SDS011;52783;50.502;8.190;2023-05-16T05:49:21;0.95;;;0.95;;
66012;SDS011;52783;50.502;8.190;2023-05-16T05:51:50;1.23;;;0.70;;
66012;SDS011;52783;50.502;8.190;2023-05-16T05:54:16;2.75;;;0.80;;
66012;SDS011;52783;50.502;8.190;2023-05-16T05:56:43;0.57;;;0.57;;
66012;SDS011;52783;50.502;8.190;2023-05-16T05:59:08;0.40;;;0.40;;
66012;SDS011;52783;50.502;8.190;2023-05-16T06:01:34;0.52;;;0.52;;
66012;SDS011;52783;50.502;8.190;2023-05-16T06:03:59;0.40;;;0.40;;
66012;SDS011;52783;50.502;8.190;2023-05-16T06:06:25;0.63;;;0.40;;
66012;SDS011;52783;50.502;8.190;2023-05-16T06:08:51;2.28;;;0.22;;
66012;SDS011;52783;50.502;8.190;2023-05-16T06:11:17;0.80;;;0.60;;
66012;SDS011;52783;50.502;8.190;2023-05-16T06:13:42;0.50;;;0.50;;
66012;SDS011;52783;50.502;8.190;2023-05-16T06:16:08;0.70;;;0.70;;
66012;SDS011;52783;50.502;8.190;2023-05-16T06:18:33;0.35;;;0.35;;
66012;SDS011;52783;50.502;8.190;2023-05-16T06:20:59;1.27;;;0.40;;
66012;SDS011;52783;50.502;8.190;2023-05-16T06:23:25;0.57;;;0.57;;
66012;SDS011;52783;50.502;8.190;2023-05-16T06:25:51;0.45;;;0.45;;
66012;SDS011;52783;50.502;8.190;2023-05-16T06:28:16;0.85;;;0.45;;
66012;SDS011;52783;50.502;8.190;2023-05-16T06:30:42;0.50;;;0.50;;
66012;SDS011;52783;50.502;8.190;2023-05-16T06:33:08;0.85;;;0.60;;
66012;SDS011;52783;50.502;8.190;2023-05-16T06:35:33;0.75;;;0.50;;
66012;SDS011;52783;50.502;8.190;2023-05-16T06:37:59;0.40;;;0.40;;
66012;SDS011;52783;50.502;8.190;2023-05-16T06:40:24;0.45;;;0.45;;
66012;SDS011;52783;50.502;8.190;2023-05-16T06:42:50;0.57;;;0.40;;
66012;SDS011;52783;50.502;8.190;2023-05-16T06:45:15;0.43;;;0.43;;
66012;SDS011;52783;50.502;8.190;2023-05-16T06:47:41;2.33;;;0.60;;
66012;SDS011;52783;50.502;8.190;2023-05-16T06:50:06;0.43;;;0.43;;
66012;SDS011;52783;50.502;8.190;2023-05-16T06:52:32;0.50;;;0.40;;
66012;SDS011;52783;50.502;8.190;2023-05-16T06:54:58;0.52;;;0.50;;
66012;SDS011;52783;50.502;8.190;2023-05-16T06:57:23;2.42;;;0.60;;
66012;SDS011;52783;50.502;8.190;2023-05-16T06:59:49;0.60;;;0.60;;
66012;SDS011;52783;50.502;8.190;2023-05-16T07:02:14;1.88;;;0.30;;
66012;SDS011;52783;50.502;8.190;2023-05-16T07:04:40;2.92;;;0.50;;
66012;SDS011;52783;50.502;8.190;2023-05-16T07:07:06;0.73;;;0.65;;
66012;SDS011;52783;50.502;8.190;2023-05-16T07:09:33;4.47;;;0.60;;
66012;SDS011;52783;50.502;8.190;2023-05-16T07:11:58;0.70;;;0.65;;
66012;SDS011;52783;50.502;8.190;2023-05-16T07:14:24;1.83;;;1.02;;
66012;SDS011;52783;50.502;8.190;2023-05-16T07:16:49;0.90;;;0.60;;
66012;SDS011;52783;50.502;8.190;2023-05-16T07:19:15;0.93;;;0.75;;
66012;SDS011;52783;50.502;8.190;2023-05-16T07:21:41;1.90;;;0.93;;
66012;SDS011;52783;50.502;8.190;2023-05-16T07:24:06;1.13;;;0.73;;
66012;SDS011;52783;50.502;8.190;2023-05-16T07:26:32;2.47;;;1.20;;
66012;SDS011;52783;50.502;8.190;2023-05-16T07:28:57;3.40;;;1.10;;
66012;SDS011;52783;50.502;8.190;2023-05-16T07:31:23;1.98;;;1.77;;
66012;SDS011;52783;50.502;8.190;2023-05-16T07:33:48;3.53;;;1.33;;
66012;SDS011;52783;50.502;8.190;2023-05-16T07:36:15;2.25;;;1.30;;
66012;SDS011;52783;50.502;8.190;2023-05-16T07:38:41;4.13;;;1.38;;
66012;SDS011;52783;50.502;8.190;2023-05-16T07:41:06;2.90;;;1.38;;
66012;SDS011;52783;50.502;8.190;2023-05-16T07:43:32;3.95;;;1.85;;
66012;SDS011;52783;50.502;8.190;2023-05-16T07:46:01;3.42;;;1.25;;
66012;SDS011;52783;50.502;8.190;2023-05-16T07:48:27;5.55;;;1.60;;
66012;SDS011;52783;50.502;8.190;2023-05-16T07:50:53;5.28;;;1.80;;
66012;SDS011;52783;50.502;8.190;2023-05-16T07:53:19;9.95;;;2.40;;
66012;SDS011;52783;50.502;8.190;2023-05-16T07:55:45;10.38;;;2.15;;
66012;SDS011;52783;50.502;8.190;2023-05-16T07:58:11;10.68;;;2.75;;
66012;SDS011;52783;50.502;8.190;2023-05-16T08:00:37;7.70;;;2.10;;
66012;SDS011;52783;50.502;8.190;2023-05-16T08:03:03;4.70;;;2.28;;
66012;SDS011;52783;50.502;8.190;2023-05-16T08:05:29;3.35;;;1.52;;
66012;SDS011;52783;50.502;8.190;2023-05-16T08:07:54;11.95;;;2.88;;
66012;SDS011;52783;50.502;8.190;2023-05-16T08:10:20;12.93;;;2.63;;
66012;SDS011;52783;50.502;8.190;2023-05-16T08:12:47;5.55;;;1.95;;
66012;SDS011;52783;50.502;8.190;2023-05-16T08:15:12;9.48;;;2.40;;
66012;SDS011;52783;50.502;8.190;2023-05-16T08:17:38;6.30;;;2.13;;
66012;SDS011;52783;50.502;8.190;2023-05-16T08:20:04;9.43;;;2.28;;
66012;SDS011;52783;50.502;8.190;2023-05-16T08:22:30;11.30;;;2.70;;
66012;SDS011;52783;50.502;8.190;2023-05-16T08:24:57;10.90;;;2.00;;
66012;SDS011;52783;50.502;8.190;2023-05-16T08:27:24;5.72;;;1.92;;
66012;SDS011;52783;50.502;8.190;2023-05-16T08:29:52;11.27;;;2.10;;
66012;SDS011;52783;50.502;8.190;2023-05-16T08:32:17;7.60;;;1.98;;
66012;SDS011;52783;50.502;8.190;2023-05-16T08:34:43;14.65;;;2.65;;
66012;SDS011;52783;50.502;8.190;2023-05-16T08:37:09;8.30;;;1.95;;
66012;SDS011;52783;50.502;8.190;2023-05-16T08:39:34;4.85;;;1.67;;
66012;SDS011;52783;50.502;8.190;2023-05-16T08:42:02;9.40;;;2.10;;
66012;SDS011;52783;50.502;8.190;2023-05-16T08:44:29;6.22;;;1.88;;
66012;SDS011;52783;50.502;8.190;2023-05-16T08:46:54;6.10;;;1.75;;
66012;SDS011;52783;50.502;8.190;2023-05-16T08:49:21;5.63;;;2.15;;
66012;SDS011;52783;50.502;8.190;2023-05-16T08:51:51;7.88;;;2.30;;
66012;SDS011;52783;50.502;8.190;2023-05-16T08:54:21;5.40;;;1.95;;
66012;SDS011;52783;50.502;8.190;2023-05-16T08:56:46;10.10;;;2.38;;
66012;SDS011;52783;50.502;8.190;2023-05-16T08:59:14;14.70;;;2.35;;
66012;SDS011;52783;50.502;8.190;2023-05-16T09:01:40;6.15;;;1.67;;
66012;SDS011;52783;50.502;8.190;2023-05-16T09:04:06;8.27;;;2.05;;
66012;SDS011;52783;50.502;8.190;2023-05-16T09:06:33;8.38;;;2.40;;
66012;SDS011;52783;50.502;8.190;2023-05-16T09:08:59;5.10;;;2.10;;
66012;SDS011;52783;50.502;8.190;2023-05-16T09:11:26;7.05;;;1.83;;
66012;SDS011;52783;50.502;8.190;2023-05-16T09:13:52;16.60;;;2.45;;
66012;SDS011;52783;50.502;8.190;2023-05-16T09:16:18;11.60;;;2.47;;
66012;SDS011;52783;50.502;8.190;2023-05-16T09:18:45;9.95;;;2.53;;
66012;SDS011;52783;50.502;8.190;2023-05-16T09:21:22;6.53;;;2.33;;
66012;SDS011;52783;50.502;8.190;2023-05-16T09:23:50;8.68;;;2.20;;
66012;SDS011;52783;50.502;8.190;2023-05-16T09:26:16;7.18;;;1.90;;
66012;SDS011;52783;50.502;8.190;2023-05-16T09:28:43;4.70;;;1.23;;
66012;SDS011;52783;50.502;8.190;2023-05-16T09:31:24;9.43;;;2.28;;
66012;SDS011;52783;50.502;8.190;2023-05-16T09:36:16;7.22;;;2.20;;
66012;SDS011;52783;50.502;8.190;2023-05-16T09:38:42;7.18;;;2.10;;
66012;SDS011;52783;50.502;8.190;2023-05-16T09:41:08;4.13;;;1.67;;
66012;SDS011;52783;50.502;8.190;2023-05-16T09:43:36;5.22;;;1.50;;
66012;SDS011;52783;50.502;8.190;2023-05-16T09:46:03;8.15;;;2.13;;
66012;SDS011;52783;50.502;8.190;2023-05-16T09:48:29;6.57;;;1.60;;
66012;SDS011;52783;50.502;8.190;2023-05-16T09:51:00;7.93;;;1.80;;
66012;SDS011;52783;50.502;8.190;2023-05-16T09:53:29;10.32;;;2.80;;
66012;SDS011;52783;50.502;8.190;2023-05-16T09:55:59;9.02;;;1.90;;
66012;SDS011;52783;50.502;8.190;2023-05-16T09:58:27;6.13;;;1.95;;
66012;SDS011;52783;50.502;8.190;2023-05-16T10:00:55;5.45;;;1.73;;
66012;SDS011;52783;50.502;8.190;2023-05-16T10:03:21;4.50;;;1.58;;
66012;SDS011;52783;50.502;8.190;2023-05-16T10:05:48;7.07;;;1.80;;
66012;SDS011;52783;50.502;8.190;2023-05-16T10:08:14;12.57;;;2.00;;
66012;SDS011;52783;50.502;8.190;2023-05-16T10:10:40;4.22;;;1.77;;
66012;SDS011;52783;50.502;8.190;2023-05-16T10:13:07;9.30;;;2.35;;
66012;SDS011;52783;50.502;8.190;2023-05-16T10:15:35;6.65;;;2.10;;
66012;SDS011;52783;50.502;8.190;2023-05-16T10:18:01;2.58;;;1.20;;
66012;SDS011;52783;50.502;8.190;2023-05-16T10:20:28;5.18;;;2.00;;
66012;SDS011;52783;50.502;8.190;2023-05-16T10:22:55;6.15;;;1.83;;
66012;SDS011;52783;50.502;8.190;2023-05-16T10:25:24;5.05;;;1.67;;
66012;SDS011;52783;50.502;8.190;2023-05-16T10:27:56;10.80;;;2.40;;
66012;SDS011;52783;50.502;8.190;2023-05-16T10:30:23;4.50;;;1.77;;
66012;SDS011;52783;50.502;8.190;2023-05-16T10:32:49;3.97;;;2.28;;
66012;SDS011;52783;50.502;8.190;2023-05-16T10:35:16;5.90;;;1.90;;
66012;SDS011;52783;50.502;8.190;2023-05-16T10:37:42;6.13;;;1.85;;
66012;SDS011;52783;50.502;8.190;2023-05-16T10:40:08;5.90;;;2.17;;
66012;SDS011;52783;50.502;8.190;2023-05-16T10:42:34;5.50;;;1.40;;
66012;SDS011;52783;50.502;8.190;2023-05-16T10:45:16;5.95;;;2.10;;
66012;SDS011;52783;50.502;8.190;2023-05-16T10:47:52;3.90;;;1.30;;
66012;SDS011;52783;50.502;8.190;2023-05-16T10:50:33;2.78;;;1.23;;
66012;SDS011;52783;50.502;8.190;2023-05-16T10:53:20;7.22;;;2.08;;
66012;SDS011;52783;50.502;8.190;2023-05-16T10:55:48;7.07;;;1.95;;
66012;SDS011;52783;50.502;8.190;2023-05-16T10:58:45;8.30;;;1.50;;
66012;SDS011;52783;50.502;8.190;2023-05-16T11:01:24;4.93;;;1.48;;
66012;SDS011;52783;50.502;8.190;2023-05-16T11:11:42;5.40;;;1.63;;
66012;SDS011;52783;50.502;8.190;2023-05-16T11:24:48;6.95;;;1.42;;
66012;SDS011;52783;50.502;8.190;2023-05-16T11:29:53;3.58;;;1.27;;
66012;SDS011;52783;50.502;8.190;2023-05-16T11:32:44;2.90;;;1.08;;
66012;SDS011;52783;50.502;8.190;2023-05-16T11:35:12;4.65;;;1.55;;
66012;SDS011;52783;50.502;8.190;2023-05-16T11:37:42;7.82;;;1.48;;
66012;SDS011;52783;50.502;8.190;2023-05-16T11:40:11;5.07;;;1.58;;
66012;SDS011;52783;50.502;8.190;2023-05-16T11:42:38;2.15;;;1.35;;
66012;SDS011;52783;50.502;8.190;2023-05-16T11:45:07;5.07;;;1.40;;
66012;SDS011;52783;50.502;8.190;2023-05-16T11:47:44;6.15;;;2.00;;
66012;SDS011;52783;50.502;8.190;2023-05-16T11:50:12;6.32;;;1.75;;
66012;SDS011;52783;50.502;8.190;2023-05-16T11:52:50;4.00;;;1.80;;
66012;SDS011;52783;50.502;8.190;2023-05-16T11:55:18;3.55;;;1.45;;
66012;SDS011;52783;50.502;8.190;2023-05-16T11:57:51;4.70;;;1.90;;
66012;SDS011;52783;50.502;8.190;2023-05-16T12:00:18;5.13;;;1.65;;
66012;SDS011;52783;50.502;8.190;2023-05-16T12:02:50;4.20;;;1.52;;
66012;SDS011;52783;50.502;8.190;2023-05-16T12:05:17;5.63;;;1.90;;
66012;SDS011;52783;50.502;8.190;2023-05-16T12:07:45;2.47;;;1.23;;
66012;SDS011;52783;50.502;8.190;2023-05-16T12:10:12;7.90;;;1.75;;
66012;SDS011;52783;50.502;8.190;2023-05-16T12:12:39;2.88;;;1.25;;
66012;SDS011;52783;50.502;8.190;2023-05-16T12:15:08;4.85;;;1.38;;
66012;SDS011;52783;50.502;8.190;2023-05-16T12:17:35;4.40;;;1.80;;
66012;SDS011;52783;50.502;8.190;2023-05-16T12:20:01;5.95;;;1.90;;
66012;SDS011;52783;50.502;8.190;2023-05-16T12:22:32;5.15;;;1.77;;
66012;SDS011;52783;50.502;8.190;2023-05-16T12:24:58;5.13;;;1.70;;
66012;SDS011;52783;50.502;8.190;2023-05-16T12:27:24;3.90;;;1.65;;
66012;SDS011;52783;50.502;8.190;2023-05-16T12:29:51;4.05;;;1.83;;
66012;SDS011;52783;50.502;8.190;2023-05-16T12:32:20;3.78;;;1.70;;
66012;SDS011;52783;50.502;8.190;2023-05-16T12:34:49;9.90;;;2.05;;
66012;SDS011;52783;50.502;8.190;2023-05-16T12:37:19;2.72;;;1.15;;
66012;SDS011;52783;50.502;8.190;2023-05-16T12:39:45;7.80;;;1.92;;
66012;SDS011;52783;50.502;8.190;2023-05-16T12:42:12;14.80;;;2.30;;
66012;SDS011;52783;50.502;8.190;2023-05-16T12:44:39;5.32;;;1.95;;
66012;SDS011;52783;50.502;8.190;2023-05-16T12:47:12;4.78;;;2.10;;
66012;SDS011;52783;50.502;8.190;2023-05-16T12:49:47;5.35;;;2.08;;
66012;SDS011;52783;50.502;8.190;2023-05-16T12:52:18;8.48;;;1.92;;
66012;SDS011;52783;50.502;8.190;2023-05-16T12:54:45;3.25;;;1.63;;
66012;SDS011;52783;50.502;8.190;2023-05-16T12:57:11;4.80;;;2.13;;
66012;SDS011;52783;50.502;8.190;2023-05-16T12:59:36;4.10;;;1.58;;
66012;SDS011;52783;50.502;8.190;2023-05-16T13:02:02;7.00;;;2.20;;
66012;SDS011;52783;50.502;8.190;2023-05-16T13:04:28;5.90;;;2.03;;
66012;SDS011;52783;50.502;8.190;2023-05-16T13:06:54;5.35;;;1.45;;
66012;SDS011;52783;50.502;8.190;2023-05-16T13:09:20;4.88;;;1.40;;
66012;SDS011;52783;50.502;8.190;2023-05-16T13:11:46;3.25;;;1.10;;
66012;SDS011;52783;50.502;8.190;2023-05-16T13:14:12;4.90;;;1.83;;
66012;SDS011;52783;50.502;8.190;2023-05-16T13:16:37;5.35;;;1.70;;
66012;SDS011;52783;50.502;8.190;2023-05-16T13:19:03;2.67;;;1.27;;
66012;SDS011;52783;50.502;8.190;2023-05-16T13:21:29;5.28;;;1.40;;
66012;SDS011;52783;50.502;8.190;2023-05-16T13:23:56;4.18;;;1.55;;
66012;SDS011;52783;50.502;8.190;2023-05-16T13:26:21;6.15;;;1.48;;
66012;SDS011;52783;50.502;8.190;2023-05-16T13:28:47;5.95;;;1.70;;
66012;SDS011;52783;50.502;8.190;2023-05-16T13:31:16;3.47;;;1.58;;
66012;SDS011;52783;50.502;8.190;2023-05-16T13:33:42;4.07;;;1.30;;
66012;SDS011;52783;50.502;8.190;2023-05-16T13:36:08;3.30;;;1.23;;
66012;SDS011;52783;50.502;8.190;2023-05-16T13:38:34;5.43;;;1.30;;
66012;SDS011;52783;50.502;8.190;2023-05-16T13:41:00;6.80;;;1.40;;
66012;SDS011;52783;50.502;8.190;2023-05-16T13:43:25;6.50;;;1.58;;
66012;SDS011;52783;50.502;8.190;2023-05-16T13:45:51;6.20;;;1.52;;
66012;SDS011;52783;50.502;8.190;2023-05-16T13:48:17;2.70;;;1.42;;
66012;SDS011;52783;50.502;8.190;2023-05-16T13:50:43;7.30;;;1.42;;
66012;SDS011;52783;50.502;8.190;2023-05-16T13:53:09;4.65;;;1.65;;
66012;SDS011;52783;50.502;8.190;2023-05-16T13:55:35;6.90;;;1.77;;
66012;SDS011;52783;50.502;8.190;2023-05-16T13:58:00;7.93;;;1.70;;
66012;SDS011;52783;50.502;8.190;2023-05-16T14:00:26;2.40;;;1.40;;
66012;SDS011;52783;50.502;8.190;2023-05-16T14:02:52;6.05;;;1.58;;
66012;SDS011;52783;50.502;8.190;2023-05-16T14:05:18;5.60;;;1.33;;
66012;SDS011;52783;50.502;8.190;2023-05-16T14:07:43;4.25;;;1.70;;
66012;SDS011;52783;50.502;8.190;2023-05-16T14:10:09;6.88;;;1.80;;
66012;SDS011;52783;50.502;8.190;2023-05-16T14:12:35;1.88;;;1.23;;
66012;SDS011;52783;50.502;8.190;2023-05-16T14:15:02;4.45;;;1.58;;
66012;SDS011;52783;50.502;8.190;2023-05-16T14:17:27;2.92;;;1.50;;
66012;SDS011;52783;50.502;8.190;2023-05-16T14:19:53;1.88;;;1.15;;
66012;SDS011;52783;50.502;8.190;2023-05-16T14:22:18;4.80;;;1.40;;
66012;SDS011;52783;50.502;8.190;2023-05-16T14:24:44;6.88;;;1.83;;
66012;SDS011;52783;50.502;8.190;2023-05-16T14:27:10;5.32;;;1.77;;
66012;SDS011;52783;50.502;8.190;2023-05-16T14:29:35;4.95;;;1.70;;
66012;SDS011;52783;50.502;8.190;2023-05-16T14:32:01;5.90;;;1.90;;
66012;SDS011;52783;50.502;8.190;2023-05-16T14:34:26;4.00;;;1.42;;
66012;SDS011;52783;50.502;8.190;2023-05-16T14:36:52;2.42;;;1.65;;
66012;SDS011;52783;50.502;8.190;2023-05-16T14:39:18;8.48;;;1.85;;
66012;SDS011;52783;50.502;8.190;2023-05-16T14:41:43;5.25;;;1.63;;
66012;SDS011;52783;50.502;8.190;2023-05-16T14:44:09;7.40;;;1.60;;
66012;SDS011;52783;50.502;8.190;2023-05-16T14:46:34;3.83;;;1.52;;
66012;SDS011;52783;50.502;8.190;2023-05-16T14:49:00;4.43;;;1.77;;
66012;SDS011;52783;50.502;8.190;2023-05-16T14:51:25;3.80;;;1.25;;
66012;SDS011;52783;50.502;8.190;2023-05-16T14:53:51;4.57;;;1.77;;
66012;SDS011;52783;50.502;8.190;2023-05-16T14:56:16;3.83;;;1.83;;
66012;SDS011;52783;50.502;8.190;2023-05-16T14:58:42;7.80;;;1.63;;
66012;SDS011;52783;50.502;8.190;2023-05-16T15:01:08;2.03;;;1.38;;
66012;SDS011;52783;50.502;8.190;2023-05-16T15:03:33;5.10;;;1.60;;
66012;SDS011;52783;50.502;8.190;2023-05-16T15:06:00;2.55;;;1.30;;
66012;SDS011;52783;50.502;8.190;2023-05-16T15:08:26;3.90;;;1.42;;
66012;SDS011;52783;50.502;8.190;2023-05-16T15:10:51;5.18;;;1.52;;
66012;SDS011;52783;50.502;8.190;2023-05-16T15:13:17;3.92;;;1.45;;
66012;SDS011;52783;50.502;8.190;2023-05-16T15:15:44;8.20;;;1.90;;